createdAt,value
2019-01-14T00:03:16.843Z,15.47
2019-01-14T00:06:10.137Z,16.63
2019-01-14T00:08:55.189Z,17.40
2019-01-14T00:11:47.077Z,12.70
2019-01-14T00:14:32.897Z,17.83
2019-01-14T00:17:21.559Z,16.73
2019-01-14T00:20:10.580Z,9.53
2019-01-14T00:22:59.064Z,20.43
2019-01-14T00:25:47.432Z,22.00
2019-01-14T00:28:35.456Z,11.67
2019-01-14T00:31:04.891Z,18.00
2019-01-14T00:33:53.515Z,14.63
2019-01-14T00:36:41.641Z,16.60
2019-01-14T00:39:11.403Z,17.00
2019-01-14T00:41:59.505Z,26.07
2019-01-14T00:44:47.543Z,21.53
2019-01-14T00:47:31.645Z,12.37
2019-01-14T00:53:04.621Z,18.07
2019-01-14T00:58:22.029Z,16.57
2019-01-14T01:03:30.597Z,14.13
2019-01-14T01:06:37.512Z,15.10
2019-01-14T01:09:25.550Z,18.13
2019-01-14T01:12:13.632Z,19.03
2019-01-14T01:15:01.734Z,18.60
2019-01-14T01:17:49.716Z,17.10
2019-01-14T01:23:19.590Z,17.87
2019-01-14T01:26:07.687Z,16.97
2019-01-14T01:28:36.715Z,19.70
2019-01-14T01:31:06.683Z,18.37
2019-01-14T01:33:54.722Z,15.17
2019-01-14T01:36:42.715Z,16.50
2019-01-14T01:39:30.756Z,15.53
2019-01-14T01:42:18.750Z,20.17
2019-01-14T01:44:48.499Z,20.53
2019-01-14T01:47:17.800Z,13.13
2019-01-14T01:49:47.495Z,18.80
2019-01-14T01:52:18.199Z,18.57
2019-01-14T01:54:48.748Z,19.73
2019-01-14T01:57:17.759Z,24.30
2019-01-14T01:59:52.680Z,23.70
2019-01-14T02:02:22.642Z,17.10
2019-01-14T02:04:54.702Z,11.73
2019-01-14T02:07:24.412Z,10.80
2019-01-14T02:10:00.418Z,18.77
2019-01-14T02:12:29.442Z,10.83
2019-01-14T02:15:00.764Z,14.90
2019-01-14T02:17:30.716Z,21.47
2019-01-14T02:20:06.518Z,17.57
2019-01-14T02:22:36.208Z,21.57
2019-01-14T02:25:08.169Z,17.10
2019-01-14T02:27:37.893Z,16.13
2019-01-14T02:30:12.407Z,17.37
2019-01-14T02:32:41.444Z,17.87
2019-01-14T02:35:13.105Z,18.33
2019-01-14T02:37:42.394Z,14.83
2019-01-14T02:40:16.299Z,14.97
2019-01-14T02:42:45.968Z,25.17
2019-01-14T02:45:18.411Z,16.53
2019-01-14T02:47:48.128Z,24.87
2019-01-14T02:50:23.935Z,20.97
2019-01-14T02:52:53.672Z,18.63
2019-01-14T02:55:24.546Z,14.07
2019-01-14T02:57:54.510Z,12.87
2019-01-14T03:00:28.190Z,17.80
2019-01-14T03:02:59.997Z,10.43
2019-01-14T03:05:29.975Z,20.30
2019-01-14T03:08:01.207Z,13.83
2019-01-14T03:10:30.787Z,15.40
2019-01-14T03:13:00.497Z,20.47
2019-01-14T03:15:34.685Z,13.97
2019-01-14T03:18:04.731Z,12.33
2019-01-14T03:20:38.992Z,17.80
2019-01-14T03:23:08.669Z,15.67
2019-01-14T03:25:40.393Z,19.57
2019-01-14T03:28:10.092Z,27.40
2019-01-14T03:30:42.757Z,20.73
2019-01-14T03:33:11.773Z,19.20
2019-01-14T03:35:46.458Z,27.27
2019-01-14T03:38:15.732Z,15.83
2019-01-14T03:40:48.241Z,19.17
2019-01-14T03:43:17.974Z,20.97
2019-01-14T03:45:55.816Z,21.33
2019-01-14T03:48:24.844Z,24.10
2019-01-14T03:50:56.880Z,21.77
2019-01-14T03:53:25.890Z,19.23
2019-01-14T03:55:58.917Z,24.63
2019-01-14T03:58:27.923Z,19.87
2019-01-14T04:01:01.336Z,16.87
2019-01-14T04:03:30.599Z,14.53
2019-01-14T04:06:03.474Z,21.60
2019-01-14T04:08:32.521Z,15.67
2019-01-14T04:11:06.512Z,8.60
2019-01-14T04:13:35.700Z,8.23
2019-01-14T04:16:09.897Z,10.83
2019-01-14T04:18:39.199Z,9.30
2019-01-14T04:21:12.237Z,4.60
2019-01-14T04:23:41.952Z,4.33
2019-01-14T04:26:20.962Z,4.27
2019-01-14T04:28:50.673Z,5.80
2019-01-14T04:31:21.464Z,5.80
2019-01-14T04:33:51.135Z,8.10
2019-01-14T04:36:23.477Z,4.07
2019-01-14T04:38:52.944Z,4.83
2019-01-14T04:41:26.364Z,5.30
2019-01-14T04:43:56.061Z,8.53
2019-01-14T04:46:29.385Z,6.07
2019-01-14T04:48:59.150Z,6.90
2019-01-14T04:51:31.702Z,6.17
2019-01-14T04:54:00.982Z,3.67
2019-01-14T04:56:34.611Z,4.53
2019-01-14T04:59:04.429Z,4.63
2019-01-14T05:01:36.848Z,5.50
2019-01-14T05:04:05.907Z,9.20
2019-01-14T05:06:41.591Z,4.80
2019-01-14T05:09:11.697Z,6.57
2019-01-14T05:11:42.660Z,8.90
2019-01-14T05:14:11.843Z,8.57
2019-01-14T05:16:45.273Z,13.87
2019-01-14T05:19:14.957Z,9.83
2019-01-14T05:21:48.390Z,13.30
2019-01-14T05:24:17.434Z,13.73
2019-01-14T05:26:50.938Z,15.93
2019-01-14T05:29:19.983Z,16.87
2019-01-14T05:31:53.284Z,13.80
2019-01-14T05:34:41.323Z,19.47
2019-01-14T05:37:37.084Z,13.80
2019-01-14T05:40:00.351Z,16.20
2019-01-14T05:42:30.175Z,15.00
2019-01-14T05:45:18.228Z,15.13
2019-01-14T05:48:06.226Z,14.23
2019-01-14T05:50:36.195Z,16.10
2019-01-14T05:53:24.197Z,18.67
2019-01-14T05:56:12.237Z,13.27
2019-01-14T06:06:47.728Z,7.37
2019-01-14T06:09:35.806Z,3.17
2019-01-14T06:12:23.838Z,4.97
2019-01-14T06:18:01.235Z,5.27
2019-01-14T06:20:49.230Z,4.83
2019-01-14T06:23:37.323Z,9.47
2019-01-14T06:26:25.330Z,5.03
2019-01-14T06:28:54.634Z,9.77
2019-01-14T06:31:42.613Z,12.10
2019-01-14T06:34:11.927Z,8.33
2019-01-14T06:36:41.611Z,6.07
2019-01-14T06:41:58.416Z,6.70
2019-01-14T06:44:46.420Z,5.53
2019-01-14T06:47:34.472Z,8.20
2019-01-14T06:50:22.567Z,4.83
2019-01-14T06:53:24.682Z,4.37
2019-01-14T06:56:00.348Z,6.43
2019-01-14T06:58:48.411Z,6.83
2019-01-14T07:01:36.421Z,7.80
2019-01-14T07:04:14.373Z,12.30
2019-01-14T07:07:02.401Z,10.00
2019-01-14T07:09:50.428Z,11.93
2019-01-14T07:12:38.432Z,4.30
2019-01-14T07:15:26.511Z,4.67
2019-01-14T07:17:55.536Z,5.23
2019-01-14T07:20:25.506Z,7.70
2019-01-14T07:23:14.200Z,5.57
2019-01-14T07:26:02.892Z,5.67
2019-01-14T07:28:50.971Z,10.93
2019-01-14T07:31:39.009Z,8.53
2019-01-14T07:34:08.749Z,4.57
2019-01-14T07:37:11.287Z,7.07
2019-01-14T07:39:47.222Z,10.27
2019-01-14T07:42:17.176Z,5.03
2019-01-14T07:44:46.168Z,8.50
2019-01-14T07:47:15.264Z,7.17
2019-01-14T07:49:44.541Z,12.47
2019-01-14T07:52:33.260Z,10.23
2019-01-14T07:55:21.359Z,4.93
2019-01-14T07:58:09.383Z,7.90
2019-01-14T08:00:57.995Z,7.63
2019-01-14T08:03:46.096Z,7.23
2019-01-14T08:09:03.668Z,5.70
2019-01-14T08:19:40.148Z,2.40
2019-01-14T08:27:48.969Z,4.73
2019-01-14T08:33:18.472Z,6.50
2019-01-14T08:35:56.972Z,12.77
2019-01-14T08:41:14.305Z,7.30
2019-01-14T08:46:31.973Z,5.07
2019-01-14T08:54:45.124Z,9.13
2019-01-14T08:57:23.428Z,12.20
2019-01-14T09:02:41.084Z,12.70
2019-01-14T09:10:49.050Z,14.20
2019-01-14T09:13:37.146Z,16.07
2019-01-14T09:16:25.139Z,16.83
2019-01-14T09:19:13.225Z,13.43
2019-01-14T09:22:20.137Z,18.50
2019-01-14T09:25:08.256Z,15.27
2019-01-14T09:27:56.248Z,5.50
2019-01-14T09:30:44.326Z,4.57
2019-01-14T09:33:32.464Z,9.50
2019-01-14T09:36:02.476Z,9.00
2019-01-14T09:38:35.741Z,8.80
2019-01-14T09:41:04.023Z,9.87
2019-01-14T09:43:33.618Z,10.80
2019-01-14T09:46:02.616Z,9.50
2019-01-14T09:48:31.623Z,5.83
2019-01-14T09:51:19.688Z,10.83
2019-01-14T09:54:07.683Z,8.03
2019-01-14T09:56:55.756Z,8.47
2019-01-14T09:59:43.752Z,3.70
2019-01-14T10:05:31.868Z,6.67
2019-01-14T10:08:19.889Z,6.87
2019-01-14T10:11:07.938Z,6.87
2019-01-14T10:13:46.148Z,3.97
2019-01-14T10:19:04.211Z,9.53
2019-01-14T10:27:07.412Z,4.13
2019-01-14T10:29:41.051Z,5.97
2019-01-14T10:32:10.060Z,6.17
2019-01-14T10:34:44.039Z,6.73
2019-01-14T10:37:32.084Z,5.03
2019-01-14T10:40:20.207Z,5.37
2019-01-14T10:43:08.247Z,6.10
2019-01-14T10:45:56.402Z,7.17
2019-01-14T10:48:44.395Z,6.00
2019-01-14T10:51:32.470Z,6.80
2019-01-14T10:54:32.167Z,5.53
2019-01-14T10:57:10.220Z,4.47
2019-01-14T10:59:59.375Z,9.47
2019-01-14T11:05:46.094Z,8.70
2019-01-14T11:08:34.235Z,9.20
2019-01-14T11:11:22.220Z,5.10
2019-01-14T11:14:04.248Z,6.30
2019-01-14T11:22:00.966Z,9.13
2019-01-14T11:28:04.883Z,7.07
2019-01-14T11:30:53.020Z,12.00
2019-01-14T11:33:41.875Z,12.40
2019-01-14T11:36:29.891Z,9.10
2019-01-14T11:39:36.809Z,12.97
2019-01-14T11:42:24.843Z,9.77
2019-01-14T11:45:12.845Z,5.63
2019-01-14T11:48:00.903Z,7.97
2019-01-14T11:50:57.066Z,14.47
2019-01-14T11:54:04.669Z,10.47
2019-01-14T12:00:00.595Z,8.40
2019-01-14T12:02:48.585Z,4.47
2019-01-14T12:05:36.672Z,4.53
2019-01-14T12:08:25.389Z,4.67
2019-01-14T12:11:13.419Z,5.40
2019-01-14T12:14:01.513Z,6.20
2019-01-14T12:16:31.248Z,6.27
2019-01-14T12:19:01.011Z,8.53
2019-01-14T12:21:31.015Z,2.63
2019-01-14T12:24:19.067Z,6.70
2019-01-14T12:27:07.316Z,4.47
2019-01-14T12:29:55.351Z,3.97
2019-01-14T12:32:47.965Z,7.60
2019-01-14T12:35:35.996Z,7.07
2019-01-14T12:38:24.012Z,6.10
2019-01-14T12:41:12.825Z,5.50
2019-01-14T12:43:42.111Z,8.20
2019-01-14T12:46:11.135Z,11.20
2019-01-14T12:48:40.864Z,3.20
2019-01-14T12:51:10.846Z,3.27
2019-01-14T12:53:39.863Z,3.10
2019-01-14T12:56:09.576Z,7.80
2019-01-14T12:59:11.731Z,5.73
2019-01-14T13:01:48.317Z,4.97
2019-01-14T13:04:36.342Z,3.70
2019-01-14T13:07:12.940Z,7.03
2019-01-14T13:10:01.610Z,6.07
2019-01-14T13:12:31.332Z,4.37
2019-01-14T13:15:40.596Z,6.60
2019-01-14T13:21:09.429Z,8.67
2019-01-14T13:26:30.329Z,5.73
2019-01-14T13:29:20.437Z,8.83
2019-01-14T13:32:09.147Z,6.30
2019-01-14T13:34:38.177Z,5.10
2019-01-14T13:37:08.166Z,5.00
2019-01-14T13:39:56.201Z,3.93
2019-01-14T13:42:44.201Z,6.67
2019-01-14T13:45:16.152Z,4.10
2019-01-14T13:48:04.160Z,7.37
2019-01-14T13:50:33.236Z,4.10
2019-01-14T13:53:02.507Z,3.20
2019-01-14T13:55:50.592Z,4.93
2019-01-14T13:58:20.543Z,9.27
2019-01-14T14:00:50.256Z,3.80
2019-01-14T14:03:19.988Z,7.93
2019-01-14T14:05:49.283Z,8.23
2019-01-14T14:08:18.325Z,8.53
2019-01-14T14:10:47.377Z,7.30
2019-01-14T14:13:17.362Z,8.40
2019-01-14T14:16:05.415Z,6.70
2019-01-14T14:18:34.740Z,2.67
2019-01-14T14:21:22.944Z,3.57
2019-01-14T14:24:10.963Z,9.27
2019-01-14T14:26:40.720Z,6.97
2019-01-14T14:29:10.718Z,6.53
2019-01-14T14:31:40.428Z,11.83
2019-01-14T14:34:10.216Z,6.03
2019-01-14T14:36:40.325Z,9.17
2019-01-14T14:39:10.792Z,5.20
2019-01-14T14:41:40.171Z,5.40
2019-01-14T14:44:10.125Z,6.70
2019-01-14T14:46:39.159Z,7.07
2019-01-14T14:49:08.320Z,10.37
2019-01-14T14:51:56.424Z,6.70
2019-01-14T14:57:44.800Z,8.07
2019-01-14T15:00:32.931Z,11.20
2019-01-14T15:03:02.929Z,14.17
2019-01-14T15:05:31.942Z,10.33
2019-01-14T15:08:02.315Z,7.10
2019-01-14T15:10:31.605Z,8.17
2019-01-14T15:13:35.446Z,5.43
2019-01-14T15:16:11.134Z,2.07
2019-01-14T15:21:10.080Z,6.60
2019-01-14T15:23:58.208Z,4.30
2019-01-14T15:29:07.882Z,9.70
2019-01-14T15:31:55.908Z,7.90
2019-01-14T15:35:02.825Z,6.53
2019-01-14T15:37:50.869Z,6.03
2019-01-14T15:40:38.893Z,7.43
2019-01-14T15:43:26.920Z,9.30
2019-01-14T15:45:56.244Z,5.27
2019-01-14T15:48:25.272Z,9.13
2019-01-14T15:50:54.989Z,5.30
2019-01-14T15:53:42.983Z,8.20
2019-01-14T15:56:31.960Z,7.00
2019-01-14T15:59:20.827Z,10.93
2019-01-14T16:02:27.785Z,7.03
2019-01-14T16:05:15.794Z,7.80
2019-01-14T16:08:18.198Z,7.63
2019-01-14T16:10:53.888Z,12.00
2019-01-14T16:13:42.009Z,6.67
2019-01-14T16:16:11.325Z,4.47
2019-01-14T16:18:40.448Z,7.90
2019-01-14T16:21:10.179Z,5.00
2019-01-14T16:27:19.239Z,9.53
2019-01-14T16:29:48.673Z,5.87
2019-01-14T16:32:27.168Z,4.63
2019-01-14T16:37:44.752Z,6.13
2019-01-14T16:42:53.676Z,5.10
2019-01-14T16:45:25.799Z,6.73
2019-01-14T16:48:13.887Z,6.53
2019-01-14T16:51:01.888Z,7.33
2019-01-14T16:53:51.728Z,4.23
2019-01-14T16:56:21.451Z,2.47
2019-01-14T17:01:52.223Z,7.07
2019-01-14T17:04:21.508Z,6.20
2019-01-14T17:06:50.535Z,6.30
2019-01-14T17:09:29.184Z,5.43
2019-01-14T17:11:58.741Z,2.93
2019-01-14T17:14:27.812Z,7.13
2019-01-14T17:16:56.849Z,6.27
2019-01-14T17:19:44.898Z,5.27
2019-01-14T17:22:32.957Z,5.07
2019-01-14T17:25:20.978Z,6.80
2019-01-14T17:27:50.067Z,12.97
2019-01-14T17:30:19.949Z,10.40
2019-01-14T17:32:49.261Z,17.37
2019-01-14T17:35:37.352Z,14.27
2019-01-14T17:38:25.342Z,10.17
2019-01-14T17:40:55.147Z,12.00
2019-01-14T17:43:24.496Z,12.03
2019-01-14T17:45:53.512Z,11.93
2019-01-14T17:49:00.460Z,15.57
2019-01-14T17:54:53.756Z,12.40
2019-01-14T17:57:41.762Z,10.97
2019-01-14T18:00:29.820Z,12.33
2019-01-14T18:02:59.325Z,14.57
2019-01-14T18:05:29.023Z,9.90
2019-01-14T18:07:58.081Z,14.00
2019-01-14T18:10:28.043Z,8.23
2019-01-14T18:13:16.120Z,8.47
2019-01-14T18:16:04.249Z,9.47
2019-01-14T18:19:09.585Z,9.00
2019-01-14T18:21:57.613Z,11.40
2019-01-14T18:24:45.647Z,12.20
2019-01-14T18:27:15.620Z,8.50
2019-01-14T18:35:38.916Z,9.67
2019-01-14T18:38:27.599Z,6.10
2019-01-14T18:41:18.059Z,8.50
2019-01-14T18:44:06.065Z,4.63
2019-01-14T18:46:54.305Z,7.23
2019-01-14T18:49:24.286Z,4.70
2019-01-14T18:51:53.411Z,12.67
2019-01-14T18:54:42.138Z,3.53
2019-01-14T19:00:54.605Z,8.23
2019-01-14T19:03:42.641Z,11.50
2019-01-14T19:06:11.673Z,8.33
2019-01-14T19:08:41.391Z,5.83
2019-01-14T19:11:11.405Z,10.83
2019-01-14T19:13:43.381Z,7.50
2019-01-14T19:16:52.738Z,12.53
2019-01-14T19:19:22.511Z,3.80
2019-01-14T19:22:10.521Z,8.03
2019-01-14T19:24:59.460Z,4.00
2019-01-14T19:27:28.754Z,9.90
2019-01-14T19:30:16.856Z,11.67
2019-01-14T19:32:46.865Z,9.27
2019-01-14T19:35:45.068Z,9.57
2019-01-14T19:40:53.344Z,8.33
2019-01-14T19:43:41.352Z,7.50
2019-01-14T19:46:29.965Z,3.70
2019-01-14T19:49:02.281Z,5.83
2019-01-14T19:51:55.957Z,8.43
2019-01-14T19:54:43.965Z,9.33
2019-01-14T19:57:32.011Z,7.07
2019-01-14T20:00:20.100Z,7.10
2019-01-14T20:02:49.247Z,8.27
2019-01-14T20:05:37.244Z,6.27
2019-01-14T20:08:06.337Z,6.07
2019-01-14T20:10:54.363Z,11.63
2019-01-14T20:13:43.084Z,7.57
2019-01-14T20:16:31.093Z,10.37
2019-01-14T20:19:19.442Z,6.27
2019-01-14T20:21:49.443Z,7.27
2019-01-14T20:24:18.465Z,6.47
2019-01-14T20:26:48.243Z,10.10
2019-01-14T20:29:36.967Z,4.97
2019-01-14T20:32:06.713Z,9.83
2019-01-14T20:34:55.407Z,11.43
2019-01-14T20:37:24.491Z,7.70
2019-01-14T20:40:12.599Z,11.13
2019-01-14T20:43:00.709Z,8.27
2019-01-14T20:45:30.723Z,11.73
2019-01-14T20:48:23.290Z,13.87
2019-01-14T20:50:50.258Z,11.70
2019-01-14T20:53:38.306Z,15.50
2019-01-14T20:56:45.227Z,14.27
2019-01-14T20:59:33.488Z,9.27
2019-01-14T21:02:22.948Z,17.50
2019-01-14T21:05:10.988Z,8.83
2019-01-14T21:07:40.972Z,16.63
2019-01-14T21:10:29.024Z,12.13
2019-01-14T21:13:17.037Z,17.03
2019-01-14T21:15:46.843Z,12.50
2019-01-14T21:18:16.816Z,15.67
2019-01-14T21:20:46.546Z,16.53
2019-01-14T21:23:27.296Z,13.20
2019-01-14T21:26:05.939Z,14.03
2019-01-14T21:28:35.768Z,16.03
2019-01-14T21:33:37.564Z,14.33
2019-01-14T21:36:19.177Z,16.67
2019-01-14T21:38:57.539Z,12.90
2019-01-14T21:41:31.273Z,11.37
2019-01-14T21:44:18.943Z,20.10
2019-01-14T21:47:06.954Z,21.87
2019-01-14T21:53:02.280Z,21.43
2019-01-14T21:55:31.615Z,14.20
2019-01-14T21:58:19.613Z,15.60
2019-01-14T22:03:55.592Z,11.17
2019-01-14T22:06:43.703Z,15.63
2019-01-14T22:09:32.393Z,10.03
2019-01-14T22:12:20.458Z,15.07
2019-01-14T22:14:49.472Z,13.20
2019-01-14T22:17:18.531Z,16.63
2019-01-14T22:19:47.868Z,16.77
2019-01-14T22:22:35.901Z,13.53
2019-01-14T22:25:05.571Z,16.73
2019-01-14T22:27:54.772Z,14.67
2019-01-14T22:30:43.554Z,17.03
2019-01-14T22:33:13.243Z,10.20
2019-01-14T22:36:01.297Z,15.57
2019-01-14T22:38:31.017Z,11.97
2019-01-14T22:41:09.639Z,8.97
2019-01-14T22:43:39.378Z,11.93
2019-01-14T22:46:08.513Z,7.93
2019-01-14T22:48:37.842Z,13.13
2019-01-14T22:51:46.918Z,11.50
2019-01-14T22:54:16.263Z,13.50
2019-01-14T22:56:45.276Z,12.30
2019-01-14T22:59:52.219Z,10.50
2019-01-14T23:02:40.239Z,12.27
2019-01-14T23:05:10.246Z,12.40
2019-01-14T23:07:58.245Z,13.67
2019-01-14T23:10:46.285Z,9.87
2019-01-14T23:13:34.285Z,16.37
2019-01-14T23:16:22.304Z,18.93
2019-01-14T23:18:51.362Z,15.07
2019-01-14T23:21:39.450Z,21.33
2019-01-14T23:24:27.442Z,13.60
2019-01-14T23:26:57.441Z,15.23
2019-01-14T23:29:26.444Z,13.47
2019-01-14T23:32:14.496Z,13.10
2019-01-14T23:35:03.207Z,16.50
2019-01-14T23:37:51.246Z,14.30
2019-01-14T23:40:39.237Z,17.47
2019-01-14T23:43:17.032Z,12.23
2019-01-14T23:46:05.254Z,13.17
2019-01-14T23:48:34.299Z,13.70
2019-01-14T23:51:23.014Z,14.03
2019-01-14T23:54:11.039Z,15.60
